sensor_id;sensor_type;location;lat;lon;timestamp;P1;durP1;ratioP1;P2;durP2;ratioP2
42846;SDS011;28495;49.916;14.536;2023-06-10T00:05:28;11.60;;;8.05;;
42846;SDS011;28495;49.916;14.536;2023-06-10T00:10:50;13.77;;;7.75;;
42846;SDS011;28495;49.916;14.536;2023-06-10T00:16:11;11.32;;;7.28;;
42846;SDS011;28495;49.916;14.536;2023-06-10T00:21:32;10.50;;;7.82;;
42846;SDS011;28495;49.916;14.536;2023-06-10T00:27:00;10.37;;;7.83;;
42846;SDS011;28495;49.916;14.536;2023-06-10T00:32:21;12.35;;;7.70;;
42846;SDS011;28495;49.916;14.536;2023-06-10T00:37:42;10.48;;;7.70;;
42846;SDS011;28495;49.916;14.536;2023-06-10T00:43:03;12.15;;;7.97;;
42846;SDS011;28495;49.916;14.536;2023-06-10T00:48:23;8.45;;;6.20;;
42846;SDS011;28495;49.916;14.536;2023-06-10T00:53:45;6.57;;;4.80;;
42846;SDS011;28495;49.916;14.536;2023-06-10T00:59:06;8.20;;;5.75;;
42846;SDS011;28495;49.916;14.536;2023-06-10T01:04:27;9.15;;;6.13;;
42846;SDS011;28495;49.916;14.536;2023-06-10T01:10:01;9.90;;;6.65;;
42846;SDS011;28495;49.916;14.536;2023-06-10T01:15:24;7.15;;;5.85;;
42846;SDS011;28495;49.916;14.536;2023-06-10T01:20:46;7.05;;;5.95;;
42846;SDS011;28495;49.916;14.536;2023-06-10T01:26:11;7.28;;;5.72;;
42846;SDS011;28495;49.916;14.536;2023-06-10T01:31:43;7.25;;;6.03;;
42846;SDS011;28495;49.916;14.536;2023-06-10T01:37:19;6.40;;;4.35;;
42846;SDS011;28495;49.916;14.536;2023-06-10T01:42:41;6.72;;;5.13;;
42846;SDS011;28495;49.916;14.536;2023-06-10T01:48:03;5.07;;;4.30;;
42846;SDS011;28495;49.916;14.536;2023-06-10T01:53:24;5.68;;;3.97;;
42846;SDS011;28495;49.916;14.536;2023-06-10T01:58:46;5.82;;;4.07;;
42846;SDS011;28495;49.916;14.536;2023-06-10T02:04:07;4.78;;;3.45;;
42846;SDS011;28495;49.916;14.536;2023-06-10T02:09:28;5.45;;;4.28;;
42846;SDS011;28495;49.916;14.536;2023-06-10T02:14:50;6.32;;;3.58;;
42846;SDS011;28495;49.916;14.536;2023-06-10T02:20:11;4.88;;;3.67;;
42846;SDS011;28495;49.916;14.536;2023-06-10T02:25:32;4.82;;;3.47;;
42846;SDS011;28495;49.916;14.536;2023-06-10T02:30:53;5.13;;;3.83;;
42846;SDS011;28495;49.916;14.536;2023-06-10T02:36:14;4.75;;;3.58;;
42846;SDS011;28495;49.916;14.536;2023-06-10T02:41:36;5.00;;;4.43;;
42846;SDS011;28495;49.916;14.536;2023-06-10T02:46:59;5.85;;;4.53;;
42846;SDS011;28495;49.916;14.536;2023-06-10T02:52:21;4.60;;;4.15;;
42846;SDS011;28495;49.916;14.536;2023-06-10T02:57:42;7.20;;;4.20;;
42846;SDS011;28495;49.916;14.536;2023-06-10T03:03:04;4.72;;;3.63;;
42846;SDS011;28495;49.916;14.536;2023-06-10T03:08:35;6.63;;;4.03;;
42846;SDS011;28495;49.916;14.536;2023-06-10T03:14:00;5.68;;;3.67;;
42846;SDS011;28495;49.916;14.536;2023-06-10T03:19:22;4.97;;;3.88;;
42846;SDS011;28495;49.916;14.536;2023-06-10T03:24:46;8.90;;;6.38;;
42846;SDS011;28495;49.916;14.536;2023-06-10T03:30:11;6.57;;;5.63;;
42846;SDS011;28495;49.916;14.536;2023-06-10T03:35:35;4.82;;;4.22;;
42846;SDS011;28495;49.916;14.536;2023-06-10T03:40:57;3.92;;;3.47;;
42846;SDS011;28495;49.916;14.536;2023-06-10T03:46:19;4.32;;;3.70;;
42846;SDS011;28495;49.916;14.536;2023-06-10T03:51:40;3.72;;;3.38;;
42846;SDS011;28495;49.916;14.536;2023-06-10T03:57:01;3.97;;;3.17;;
42846;SDS011;28495;49.916;14.536;2023-06-10T04:02:23;5.78;;;3.28;;
42846;SDS011;28495;49.916;14.536;2023-06-10T04:07:46;4.85;;;3.35;;
42846;SDS011;28495;49.916;14.536;2023-06-10T04:13:09;4.25;;;3.85;;
42846;SDS011;28495;49.916;14.536;2023-06-10T04:18:38;5.03;;;3.83;;
42846;SDS011;28495;49.916;14.536;2023-06-10T04:24:00;5.20;;;4.15;;
42846;SDS011;28495;49.916;14.536;2023-06-10T04:29:22;6.03;;;3.80;;
42846;SDS011;28495;49.916;14.536;2023-06-10T04:34:47;4.25;;;3.70;;
42846;SDS011;28495;49.916;14.536;2023-06-10T04:40:08;5.25;;;4.53;;
42846;SDS011;28495;49.916;14.536;2023-06-10T04:45:30;4.43;;;3.92;;
42846;SDS011;28495;49.916;14.536;2023-06-10T04:50:53;5.63;;;4.18;;
42846;SDS011;28495;49.916;14.536;2023-06-10T04:56:14;5.38;;;4.50;;
42846;SDS011;28495;49.916;14.536;2023-06-10T05:01:36;5.00;;;4.40;;
42846;SDS011;28495;49.916;14.536;2023-06-10T05:06:57;4.38;;;3.97;;
42846;SDS011;28495;49.916;14.536;2023-06-10T05:12:18;4.57;;;4.03;;
42846;SDS011;28495;49.916;14.536;2023-06-10T05:17:39;6.70;;;4.43;;
42846;SDS011;28495;49.916;14.536;2023-06-10T05:23:00;5.05;;;4.45;;
42846;SDS011;28495;49.916;14.536;2023-06-10T05:28:21;5.30;;;3.95;;
42846;SDS011;28495;49.916;14.536;2023-06-10T05:33:41;4.30;;;3.88;;
42846;SDS011;28495;49.916;14.536;2023-06-10T05:39:02;3.90;;;3.45;;
42846;SDS011;28495;49.916;14.536;2023-06-10T05:44:23;3.95;;;3.58;;
42846;SDS011;28495;49.916;14.536;2023-06-10T05:49:45;4.05;;;3.65;;
42846;SDS011;28495;49.916;14.536;2023-06-10T05:55:08;3.00;;;2.75;;
42846;SDS011;28495;49.916;14.536;2023-06-10T06:00:30;5.18;;;3.28;;
42846;SDS011;28495;49.916;14.536;2023-06-10T06:05:51;5.03;;;3.13;;
42846;SDS011;28495;49.916;14.536;2023-06-10T06:11:12;2.80;;;2.47;;
42846;SDS011;28495;49.916;14.536;2023-06-10T06:16:34;4.03;;;3.00;;
42846;SDS011;28495;49.916;14.536;2023-06-10T06:21:55;3.97;;;3.40;;
42846;SDS011;28495;49.916;14.536;2023-06-10T06:27:16;3.90;;;3.50;;
42846;SDS011;28495;49.916;14.536;2023-06-10T06:32:37;4.40;;;3.58;;
42846;SDS011;28495;49.916;14.536;2023-06-10T06:37:58;3.80;;;3.45;;
42846;SDS011;28495;49.916;14.536;2023-06-10T06:43:22;4.72;;;3.97;;
42846;SDS011;28495;49.916;14.536;2023-06-10T06:48:56;3.72;;;3.38;;
42846;SDS011;28495;49.916;14.536;2023-06-10T06:54:17;5.25;;;3.42;;
42846;SDS011;28495;49.916;14.536;2023-06-10T06:59:38;5.80;;;3.38;;
42846;SDS011;28495;49.916;14.536;2023-06-10T07:04:59;3.83;;;3.42;;
42846;SDS011;28495;49.916;14.536;2023-06-10T07:10:29;3.72;;;3.35;;
42846;SDS011;28495;49.916;14.536;2023-06-10T07:15:50;4.20;;;3.80;;
42846;SDS011;28495;49.916;14.536;2023-06-10T07:21:10;5.63;;;3.53;;
42846;SDS011;28495;49.916;14.536;2023-06-10T07:26:31;4.00;;;3.60;;
42846;SDS011;28495;49.916;14.536;2023-06-10T07:31:52;3.63;;;3.22;;
42846;SDS011;28495;49.916;14.536;2023-06-10T07:37:14;3.85;;;2.88;;
42846;SDS011;28495;49.916;14.536;2023-06-10T07:42:35;3.60;;;3.30;;
42846;SDS011;28495;49.916;14.536;2023-06-10T07:47:57;5.95;;;3.72;;
42846;SDS011;28495;49.916;14.536;2023-06-10T07:53:18;6.38;;;4.53;;
42846;SDS011;28495;49.916;14.536;2023-06-10T07:58:39;4.65;;;3.63;;
42846;SDS011;28495;49.916;14.536;2023-06-10T08:04:00;6.25;;;4.50;;
42846;SDS011;28495;49.916;14.536;2023-06-10T08:09:21;6.22;;;4.25;;
42846;SDS011;28495;49.916;14.536;2023-06-10T08:14:43;6.45;;;4.45;;
42846;SDS011;28495;49.916;14.536;2023-06-10T08:20:04;4.85;;;4.20;;
42846;SDS011;28495;49.916;14.536;2023-06-10T08:25:27;5.47;;;4.85;;
42846;SDS011;28495;49.916;14.536;2023-06-10T08:30:48;7.38;;;4.95;;
42846;SDS011;28495;49.916;14.536;2023-06-10T08:36:10;9.30;;;5.38;;
42846;SDS011;28495;49.916;14.536;2023-06-10T08:41:32;5.57;;;4.82;;
42846;SDS011;28495;49.916;14.536;2023-06-10T08:46:58;7.90;;;5.30;;
42846;SDS011;28495;49.916;14.536;2023-06-10T08:52:20;4.82;;;4.18;;
42846;SDS011;28495;49.916;14.536;2023-06-10T08:57:41;6.40;;;4.55;;
42846;SDS011;28495;49.916;14.536;2023-06-10T09:03:04;5.95;;;4.47;;
42846;SDS011;28495;49.916;14.536;2023-06-10T09:08:29;4.43;;;3.90;;
42846;SDS011;28495;49.916;14.536;2023-06-10T09:13:51;6.72;;;5.07;;
42846;SDS011;28495;49.916;14.536;2023-06-10T09:19:12;6.75;;;4.30;;
42846;SDS011;28495;49.916;14.536;2023-06-10T09:24:36;7.63;;;5.00;;
42846;SDS011;28495;49.916;14.536;2023-06-10T09:29:57;6.88;;;4.88;;
42846;SDS011;28495;49.916;14.536;2023-06-10T09:35:18;5.80;;;5.00;;
42846;SDS011;28495;49.916;14.536;2023-06-10T09:40:50;6.07;;;4.68;;
42846;SDS011;28495;49.916;14.536;2023-06-10T09:46:18;5.45;;;4.38;;
42846;SDS011;28495;49.916;14.536;2023-06-10T09:51:53;6.18;;;5.38;;
42846;SDS011;28495;49.916;14.536;2023-06-10T09:57:15;6.05;;;5.45;;
42846;SDS011;28495;49.916;14.536;2023-06-10T10:02:53;9.52;;;5.03;;
42846;SDS011;28495;49.916;14.536;2023-06-10T10:08:15;6.18;;;5.13;;
42846;SDS011;28495;49.916;14.536;2023-06-10T10:13:35;6.05;;;4.75;;
42846;SDS011;28495;49.916;14.536;2023-06-10T10:19:07;6.40;;;5.05;;
42846;SDS011;28495;49.916;14.536;2023-06-10T10:24:33;8.00;;;5.38;;
42846;SDS011;28495;49.916;14.536;2023-06-10T10:30:02;6.82;;;5.07;;
42846;SDS011;28495;49.916;14.536;2023-06-10T10:35:29;6.25;;;4.88;;
42846;SDS011;28495;49.916;14.536;2023-06-10T10:40:55;7.57;;;5.38;;
42846;SDS011;28495;49.916;14.536;2023-06-10T10:46:20;9.68;;;5.55;;
42846;SDS011;28495;49.916;14.536;2023-06-10T10:51:54;8.80;;;6.30;;
42846;SDS011;28495;49.916;14.536;2023-06-10T11:02:45;7.00;;;5.88;;
42846;SDS011;28495;49.916;14.536;2023-06-10T11:08:11;9.63;;;6.10;;
42846;SDS011;28495;49.916;14.536;2023-06-10T11:13:32;6.63;;;5.90;;
42846;SDS011;28495;49.916;14.536;2023-06-10T11:18:54;6.93;;;5.78;;
42846;SDS011;28495;49.916;14.536;2023-06-10T11:24:15;7.43;;;6.18;;
42846;SDS011;28495;49.916;14.536;2023-06-10T11:29:37;8.38;;;5.25;;
42846;SDS011;28495;49.916;14.536;2023-06-10T11:34:58;5.65;;;4.95;;
42846;SDS011;28495;49.916;14.536;2023-06-10T11:40:19;6.85;;;5.28;;
42846;SDS011;28495;49.916;14.536;2023-06-10T11:45:41;5.30;;;4.20;;
42846;SDS011;28495;49.916;14.536;2023-06-10T11:51:08;5.72;;;3.90;;
42846;SDS011;28495;49.916;14.536;2023-06-10T11:56:30;4.55;;;3.50;;
42846;SDS011;28495;49.916;14.536;2023-06-10T12:01:52;4.88;;;4.35;;
42846;SDS011;28495;49.916;14.536;2023-06-10T12:07:19;5.22;;;4.07;;
42846;SDS011;28495;49.916;14.536;2023-06-10T12:12:41;8.60;;;5.03;;
42846;SDS011;28495;49.916;14.536;2023-06-10T12:18:03;5.28;;;4.78;;
42846;SDS011;28495;49.916;14.536;2023-06-10T12:23:26;5.90;;;5.00;;
42846;SDS011;28495;49.916;14.536;2023-06-10T12:28:50;7.30;;;4.80;;
42846;SDS011;28495;49.916;14.536;2023-06-10T12:34:11;5.32;;;4.82;;
42846;SDS011;28495;49.916;14.536;2023-06-10T12:39:33;9.20;;;6.53;;
42846;SDS011;28495;49.916;14.536;2023-06-10T12:44:55;5.72;;;5.13;;
42846;SDS011;28495;49.916;14.536;2023-06-10T12:50:21;6.07;;;5.47;;
42846;SDS011;28495;49.916;14.536;2023-06-10T12:55:42;6.47;;;5.40;;
42846;SDS011;28495;49.916;14.536;2023-06-10T13:01:05;7.40;;;5.57;;
42846;SDS011;28495;49.916;14.536;2023-06-10T13:06:26;5.35;;;4.85;;
42846;SDS011;28495;49.916;14.536;2023-06-10T13:11:47;6.65;;;5.00;;
42846;SDS011;28495;49.916;14.536;2023-06-10T13:17:10;7.47;;;5.70;;
42846;SDS011;28495;49.916;14.536;2023-06-10T13:22:31;5.78;;;5.10;;
42846;SDS011;28495;49.916;14.536;2023-06-10T13:27:53;5.10;;;4.60;;
42846;SDS011;28495;49.916;14.536;2023-06-10T13:33:15;9.88;;;5.20;;
42846;SDS011;28495;49.916;14.536;2023-06-10T13:38:36;5.50;;;4.20;;
42846;SDS011;28495;49.916;14.536;2023-06-10T13:43:59;3.97;;;3.45;;
42846;SDS011;28495;49.916;14.536;2023-06-10T13:49:20;4.88;;;4.38;;
42846;SDS011;28495;49.916;14.536;2023-06-10T13:54:42;4.28;;;3.85;;
42846;SDS011;28495;49.916;14.536;2023-06-10T14:00:03;4.88;;;3.78;;
42846;SDS011;28495;49.916;14.536;2023-06-10T14:05:24;7.88;;;4.00;;
42846;SDS011;28495;49.916;14.536;2023-06-10T14:10:47;3.85;;;3.47;;
42846;SDS011;28495;49.916;14.536;2023-06-10T14:16:08;6.57;;;3.90;;
42846;SDS011;28495;49.916;14.536;2023-06-10T14:21:29;7.00;;;3.90;;
42846;SDS011;28495;49.916;14.536;2023-06-10T14:26:50;5.32;;;4.10;;
42846;SDS011;28495;49.916;14.536;2023-06-10T14:32:11;5.90;;;3.95;;
42846;SDS011;28495;49.916;14.536;2023-06-10T14:37:32;6.18;;;4.07;;
42846;SDS011;28495;49.916;14.536;2023-06-10T14:42:53;4.75;;;3.95;;
42846;SDS011;28495;49.916;14.536;2023-06-10T14:48:14;4.32;;;3.70;;
42846;SDS011;28495;49.916;14.536;2023-06-10T14:53:35;6.32;;;3.92;;
42846;SDS011;28495;49.916;14.536;2023-06-10T14:58:56;6.95;;;3.70;;
42846;SDS011;28495;49.916;14.536;2023-06-10T15:04:16;4.45;;;3.80;;
42846;SDS011;28495;49.916;14.536;2023-06-10T15:09:42;4.63;;;3.75;;
42846;SDS011;28495;49.916;14.536;2023-06-10T15:15:03;6.63;;;3.88;;
42846;SDS011;28495;49.916;14.536;2023-06-10T15:20:24;3.58;;;3.10;;
42846;SDS011;28495;49.916;14.536;2023-06-10T15:25:45;5.28;;;4.10;;
42846;SDS011;28495;49.916;14.536;2023-06-10T15:31:07;4.55;;;3.75;;
42846;SDS011;28495;49.916;14.536;2023-06-10T15:36:28;5.03;;;4.20;;
42846;SDS011;28495;49.916;14.536;2023-06-10T15:41:49;6.80;;;4.65;;
42846;SDS011;28495;49.916;14.536;2023-06-10T15:47:11;5.00;;;4.50;;
42846;SDS011;28495;49.916;14.536;2023-06-10T15:52:31;4.65;;;4.10;;
42846;SDS011;28495;49.916;14.536;2023-06-10T15:57:52;5.50;;;3.92;;
42846;SDS011;28495;49.916;14.536;2023-06-10T16:03:13;4.10;;;3.10;;
42846;SDS011;28495;49.916;14.536;2023-06-10T16:08:34;3.60;;;2.92;;
42846;SDS011;28495;49.916;14.536;2023-06-10T16:13:55;4.57;;;3.22;;
42846;SDS011;28495;49.916;14.536;2023-06-10T16:19:16;3.47;;;3.17;;
42846;SDS011;28495;49.916;14.536;2023-06-10T16:24:38;4.15;;;3.47;;
42846;SDS011;28495;49.916;14.536;2023-06-10T16:29:59;4.47;;;3.90;;
42846;SDS011;28495;49.916;14.536;2023-06-10T16:35:19;4.88;;;4.32;;
42846;SDS011;28495;49.916;14.536;2023-06-10T16:40:40;3.90;;;3.50;;
42846;SDS011;28495;49.916;14.536;2023-06-10T16:46:01;7.22;;;3.53;;
42846;SDS011;28495;49.916;14.536;2023-06-10T16:51:22;4.72;;;3.20;;
42846;SDS011;28495;49.916;14.536;2023-06-10T16:56:43;5.35;;;3.70;;
42846;SDS011;28495;49.916;14.536;2023-06-10T17:02:05;4.97;;;3.40;;
42846;SDS011;28495;49.916;14.536;2023-06-10T17:07:27;6.28;;;4.47;;
42846;SDS011;28495;49.916;14.536;2023-06-10T17:12:50;4.82;;;3.08;;
42846;SDS011;28495;49.916;14.536;2023-06-10T17:18:11;5.22;;;3.25;;
42846;SDS011;28495;49.916;14.536;2023-06-10T17:23:32;6.03;;;2.92;;
42846;SDS011;28495;49.916;14.536;2023-06-10T17:28:53;4.28;;;3.55;;
42846;SDS011;28495;49.916;14.536;2023-06-10T17:34:14;5.35;;;3.50;;
42846;SDS011;28495;49.916;14.536;2023-06-10T17:39:35;7.18;;;3.70;;
42846;SDS011;28495;49.916;14.536;2023-06-10T17:44:56;4.78;;;3.50;;
42846;SDS011;28495;49.916;14.536;2023-06-10T17:50:17;4.50;;;3.70;;
42846;SDS011;28495;49.916;14.536;2023-06-10T17:55:39;4.25;;;3.85;;
42846;SDS011;28495;49.916;14.536;2023-06-10T18:01:00;4.20;;;3.80;;
42846;SDS011;28495;49.916;14.536;2023-06-10T18:06:21;4.40;;;3.60;;
42846;SDS011;28495;49.916;14.536;2023-06-10T18:11:42;4.63;;;3.63;;
42846;SDS011;28495;49.916;14.536;2023-06-10T18:17:03;5.57;;;3.88;;
42846;SDS011;28495;49.916;14.536;2023-06-10T18:22:24;6.10;;;4.05;;
42846;SDS011;28495;49.916;14.536;2023-06-10T18:27:46;4.65;;;3.85;;
42846;SDS011;28495;49.916;14.536;2023-06-10T18:33:07;3.88;;;3.33;;
42846;SDS011;28495;49.916;14.536;2023-06-10T18:38:28;4.55;;;3.45;;
42846;SDS011;28495;49.916;14.536;2023-06-10T18:43:48;9.52;;;4.03;;
42846;SDS011;28495;49.916;14.536;2023-06-10T18:49:09;7.05;;;4.65;;
42846;SDS011;28495;49.916;14.536;2023-06-10T18:54:30;4.55;;;3.65;;
42846;SDS011;28495;49.916;14.536;2023-06-10T18:59:51;7.43;;;4.40;;
42846;SDS011;28495;49.916;14.536;2023-06-10T19:05:12;4.03;;;3.63;;
42846;SDS011;28495;49.916;14.536;2023-06-10T19:10:34;4.30;;;3.88;;
42846;SDS011;28495;49.916;14.536;2023-06-10T19:15:55;4.00;;;3.60;;
42846;SDS011;28495;49.916;14.536;2023-06-10T19:21:16;4.10;;;3.78;;
42846;SDS011;28495;49.916;14.536;2023-06-10T19:26:38;4.47;;;4.00;;
42846;SDS011;28495;49.916;14.536;2023-06-10T19:32:01;6.32;;;4.35;;
42846;SDS011;28495;49.916;14.536;2023-06-10T19:37:23;8.15;;;4.38;;
42846;SDS011;28495;49.916;14.536;2023-06-10T19:42:44;7.18;;;4.45;;
42846;SDS011;28495;49.916;14.536;2023-06-10T19:48:04;5.18;;;3.80;;
42846;SDS011;28495;49.916;14.536;2023-06-10T19:53:31;5.13;;;3.78;;
42846;SDS011;28495;49.916;14.536;2023-06-10T19:58:52;5.55;;;4.72;;
42846;SDS011;28495;49.916;14.536;2023-06-10T20:04:12;8.23;;;5.80;;
42846;SDS011;28495;49.916;14.536;2023-06-10T20:09:33;6.88;;;6.18;;
42846;SDS011;28495;49.916;14.536;2023-06-10T20:14:55;7.18;;;6.15;;
42846;SDS011;28495;49.916;14.536;2023-06-10T20:20:16;5.90;;;5.07;;
42846;SDS011;28495;49.916;14.536;2023-06-10T20:25:37;7.22;;;5.18;;
42846;SDS011;28495;49.916;14.536;2023-06-10T20:31:00;5.03;;;4.53;;
42846;SDS011;28495;49.916;14.536;2023-06-10T20:36:21;7.68;;;5.03;;
42846;SDS011;28495;49.916;14.536;2023-06-10T20:41:42;7.38;;;5.22;;
42846;SDS011;28495;49.916;14.536;2023-06-10T20:47:03;5.07;;;4.20;;
42846;SDS011;28495;49.916;14.536;2023-06-10T20:52:24;4.97;;;4.20;;
42846;SDS011;28495;49.916;14.536;2023-06-10T20:57:46;5.55;;;4.93;;
42846;SDS011;28495;49.916;14.536;2023-06-10T21:03:06;6.22;;;4.15;;
42846;SDS011;28495;49.916;14.536;2023-06-10T21:08:28;5.93;;;4.13;;
42846;SDS011;28495;49.916;14.536;2023-06-10T21:13:49;5.30;;;4.55;;
42846;SDS011;28495;49.916;14.536;2023-06-10T21:19:09;5.05;;;4.03;;
42846;SDS011;28495;49.916;14.536;2023-06-10T21:24:31;6.32;;;4.32;;
42846;SDS011;28495;49.916;14.536;2023-06-10T21:29:52;6.85;;;4.95;;
42846;SDS011;28495;49.916;14.536;2023-06-10T21:35:13;11.38;;;8.38;;
42846;SDS011;28495;49.916;14.536;2023-06-10T21:40:34;10.30;;;6.32;;
42846;SDS011;28495;49.916;14.536;2023-06-10T21:45:55;11.57;;;7.72;;
42846;SDS011;28495;49.916;14.536;2023-06-10T21:51:17;18.60;;;11.88;;
42846;SDS011;28495;49.916;14.536;2023-06-10T21:56:38;13.02;;;8.80;;
42846;SDS011;28495;49.916;14.536;2023-06-10T22:01:59;10.02;;;6.97;;
42846;SDS011;28495;49.916;14.536;2023-06-10T22:07:20;13.60;;;9.13;;
42846;SDS011;28495;49.916;14.536;2023-06-10T22:12:41;8.88;;;6.72;;
42846;SDS011;28495;49.916;14.536;2023-06-10T22:18:03;17.98;;;10.00;;
42846;SDS011;28495;49.916;14.536;2023-06-10T22:23:26;14.73;;;8.63;;
42846;SDS011;28495;49.916;14.536;2023-06-10T22:28:46;8.30;;;6.68;;
42846;SDS011;28495;49.916;14.536;2023-06-10T22:34:07;10.73;;;5.15;;
42846;SDS011;28495;49.916;14.536;2023-06-10T22:39:28;6.18;;;4.70;;
42846;SDS011;28495;49.916;14.536;2023-06-10T22:44:49;5.32;;;4.03;;
42846;SDS011;28495;49.916;14.536;2023-06-10T22:50:10;3.85;;;3.42;;
42846;SDS011;28495;49.916;14.536;2023-06-10T22:55:30;6.13;;;3.58;;
42846;SDS011;28495;49.916;14.536;2023-06-10T23:00:53;4.28;;;3.40;;
42846;SDS011;28495;49.916;14.536;2023-06-10T23:06:13;5.82;;;3.55;;
42846;SDS011;28495;49.916;14.536;2023-06-10T23:11:35;5.68;;;3.47;;
42846;SDS011;28495;49.916;14.536;2023-06-10T23:16:56;4.70;;;3.00;;
42846;SDS011;28495;49.916;14.536;2023-06-10T23:22:17;6.22;;;3.67;;
42846;SDS011;28495;49.916;14.536;2023-06-10T23:27:39;4.45;;;2.90;;
42846;SDS011;28495;49.916;14.536;2023-06-10T23:33:00;8.00;;;3.60;;
42846;SDS011;28495;49.916;14.536;2023-06-10T23:38:21;6.25;;;3.45;;
42846;SDS011;28495;49.916;14.536;2023-06-10T23:43:41;8.77;;;3.80;;
42846;SDS011;28495;49.916;14.536;2023-06-10T23:49:03;6.13;;;3.35;;
42846;SDS011;28495;49.916;14.536;2023-06-10T23:54:25;5.55;;;3.67;;
42846;SDS011;28495;49.916;14.536;2023-06-10T23:59:46;8.30;;;3.85;;
